createdAt,value
2018-12-06T00:01:31.359Z,79.77
2018-12-06T00:04:01.972Z,88.63
2018-12-06T00:06:36.068Z,79.00
2018-12-06T00:09:09.543Z,89.33
2018-12-06T00:11:42.706Z,77.60
2018-12-06T00:14:21.038Z,77.33
2018-12-06T00:16:54.736Z,77.30
2018-12-06T00:19:28.067Z,69.63
2018-12-06T00:22:01.620Z,69.27
2018-12-06T00:24:32.187Z,69.93
2018-12-06T00:27:08.197Z,58.73
2018-12-06T00:29:46.423Z,56.60
2018-12-06T00:32:24.194Z,67.30
2018-12-06T00:34:54.960Z,67.77
2018-12-06T00:40:28.168Z,61.93
2018-12-06T00:43:02.197Z,61.90
2018-12-06T00:45:31.426Z,72.13
2018-12-06T00:48:07.412Z,68.87
2018-12-06T00:50:45.074Z,66.77
2018-12-06T00:53:18.820Z,56.30
2018-12-06T00:55:49.572Z,63.63
2018-12-06T00:58:23.075Z,61.47
2018-12-06T01:00:53.809Z,63.00
2018-12-06T01:03:24.305Z,67.73
2018-12-06T01:05:57.696Z,61.43
2018-12-06T01:08:31.048Z,56.43
2018-12-06T01:11:20.205Z,62.67
2018-12-06T01:13:49.348Z,61.53
2018-12-06T01:16:22.602Z,62.40
2018-12-06T01:18:51.176Z,60.17
2018-12-06T01:21:25.539Z,61.98
2018-12-06T01:23:59.080Z,60.17
2018-12-06T01:26:36.675Z,55.03
2018-12-06T01:29:05.571Z,61.17
2018-12-06T01:31:38.932Z,56.07
2018-12-06T01:34:09.679Z,53.07
2018-12-06T01:36:44.895Z,54.47
2018-12-06T01:39:18.674Z,60.90
2018-12-06T01:41:52.023Z,54.20
2018-12-06T01:44:21.014Z,59.53
2018-12-06T01:49:53.739Z,55.40
2018-12-06T01:52:27.060Z,60.43
2018-12-06T01:54:55.824Z,64.33
2018-12-06T01:57:30.143Z,71.53
2018-12-06T02:00:10.384Z,65.43
2018-12-06T02:02:41.415Z,57.13
2018-12-06T02:05:15.892Z,64.87
2018-12-06T02:07:47.643Z,61.03
2018-12-06T02:10:25.009Z,63.73
2018-12-06T02:13:09.020Z,59.00
2018-12-06T02:15:40.722Z,55.40
2018-12-06T02:18:15.467Z,50.07
2018-12-06T02:20:49.964Z,51.20
2018-12-06T02:23:25.324Z,51.87
2018-12-06T02:25:55.928Z,49.73
2018-12-06T02:28:31.166Z,47.73
2018-12-06T02:31:02.250Z,53.80
2018-12-06T02:33:32.938Z,43.30
2018-12-06T02:36:08.564Z,50.03
2018-12-06T02:38:42.175Z,50.87
2018-12-06T02:41:14.271Z,46.93
2018-12-06T02:43:52.402Z,46.17
2018-12-06T02:46:26.252Z,46.20
2018-12-06T02:49:00.676Z,44.47
2018-12-06T02:51:46.193Z,46.27
2018-12-06T02:54:19.456Z,45.37
2018-12-06T02:56:53.161Z,44.30
2018-12-06T02:59:30.625Z,40.97
2018-12-06T03:02:04.262Z,44.00
2018-12-06T03:04:35.835Z,43.87
2018-12-06T03:07:06.650Z,42.17
2018-12-06T03:09:37.395Z,42.10
2018-12-06T03:12:11.692Z,39.50
2018-12-06T03:14:42.823Z,45.23
2018-12-06T03:17:16.369Z,40.60
2018-12-06T03:19:47.928Z,46.23
2018-12-06T03:25:18.875Z,37.67
2018-12-06T03:27:49.655Z,39.97
2018-12-06T03:30:23.702Z,39.07
2018-12-06T03:32:54.599Z,39.10
2018-12-06T03:35:25.738Z,40.87
2018-12-06T03:38:09.479Z,38.17
2018-12-06T03:40:43.460Z,38.03
2018-12-06T03:43:14.866Z,39.63
2018-12-06T03:45:47.252Z,36.47
2018-12-06T03:51:09.560Z,37.73
2018-12-06T03:53:45.112Z,35.80
2018-12-06T03:56:20.623Z,39.80
2018-12-06T03:58:51.778Z,35.97
2018-12-06T04:01:25.394Z,40.50
2018-12-06T04:03:58.836Z,40.20
2018-12-06T04:06:32.079Z,38.67
2018-12-06T04:09:03.531Z,42.63
2018-12-06T04:11:37.371Z,40.03
2018-12-06T04:14:08.200Z,39.30
2018-12-06T04:16:42.225Z,40.67
2018-12-06T04:19:14.675Z,38.90
2018-12-06T04:21:48.527Z,35.23
2018-12-06T04:24:22.314Z,37.47
2018-12-06T04:26:56.334Z,35.03
2018-12-06T04:29:30.104Z,32.20
2018-12-06T04:32:05.527Z,35.73
2018-12-06T04:34:36.721Z,84.30
2018-12-06T04:37:05.575Z,59.97
2018-12-06T04:39:39.617Z,46.17
2018-12-06T04:42:14.036Z,78.70
2018-12-06T04:44:45.709Z,74.40
2018-12-06T04:50:15.576Z,41.17
2018-12-06T04:55:44.177Z,49.13
2018-12-06T04:58:20.031Z,54.83
2018-12-06T05:00:48.770Z,52.60
2018-12-06T05:03:19.644Z,52.35
2018-12-06T05:05:50.570Z,47.47
2018-12-06T05:08:24.405Z,47.33
2018-12-06T05:10:55.185Z,50.10
2018-12-06T05:13:29.245Z,48.17
2018-12-06T05:16:03.073Z,52.83
2018-12-06T05:18:43.214Z,50.13
2018-12-06T05:21:14.589Z,49.17
2018-12-06T05:23:43.623Z,50.17
2018-12-06T05:29:09.527Z,55.20
2018-12-06T05:31:44.021Z,43.70
2018-12-06T05:34:19.727Z,52.10
2018-12-06T05:36:50.669Z,42.07
2018-12-06T05:42:17.814Z,46.73
2018-12-06T05:44:49.297Z,48.03
2018-12-06T05:47:22.582Z,45.10
2018-12-06T05:49:56.196Z,44.70
2018-12-06T05:52:40.195Z,43.93
2018-12-06T05:55:09.479Z,44.67
2018-12-06T05:57:42.726Z,47.27
2018-12-06T06:03:10.975Z,39.73
2018-12-06T06:05:41.923Z,42.20
2018-12-06T06:08:16.374Z,44.97
2018-12-06T06:10:49.808Z,103.53
2018-12-06T06:16:21.391Z,86.23
2018-12-06T06:18:54.938Z,55.97
2018-12-06T06:21:32.401Z,40.07
2018-12-06T06:24:03.348Z,37.83
2018-12-06T06:26:33.638Z,46.93
2018-12-06T06:29:11.259Z,38.47
2018-12-06T06:31:44.952Z,39.60
2018-12-06T06:34:22.751Z,41.03
2018-12-06T06:36:51.703Z,38.67
2018-12-06T06:42:16.161Z,46.90
2018-12-06T06:44:47.119Z,38.90
2018-12-06T06:47:18.384Z,37.00
2018-12-06T06:49:51.907Z,35.57
2018-12-06T06:52:22.828Z,40.93
2018-12-06T06:54:56.076Z,37.50
2018-12-06T07:00:22.720Z,40.53
2018-12-06T07:11:36.071Z,48.43
2018-12-06T07:14:23.017Z,50.63
2018-12-06T07:16:53.954Z,47.33
2018-12-06T07:19:24.756Z,49.33
2018-12-06T07:21:58.310Z,49.20
2018-12-06T07:24:32.036Z,54.43
2018-12-06T07:27:03.110Z,49.07
2018-12-06T07:29:32.214Z,58.30
2018-12-06T07:32:05.567Z,51.97
2018-12-06T07:34:39.425Z,45.73
2018-12-06T07:37:10.202Z,51.10
2018-12-06T07:39:43.716Z,47.03
2018-12-06T07:42:17.148Z,47.33
2018-12-06T07:44:47.984Z,47.53
2018-12-06T07:47:19.492Z,46.03
2018-12-06T07:49:50.938Z,43.10
2018-12-06T07:52:23.406Z,41.50
2018-12-06T07:54:51.998Z,49.10
2018-12-06T08:00:18.954Z,43.33
2018-12-06T08:02:56.214Z,41.70
2018-12-06T08:05:30.096Z,39.23
2018-12-06T08:10:51.774Z,42.90
2018-12-06T08:13:29.241Z,36.10
2018-12-06T08:24:22.649Z,37.30
2018-12-06T08:29:49.687Z,35.00
2018-12-06T08:32:22.911Z,36.23
2018-12-06T08:34:53.892Z,52.37
2018-12-06T08:37:28.072Z,38.87
2018-12-06T08:40:02.120Z,42.87
2018-12-06T08:45:24.277Z,49.87
2018-12-06T08:50:55.261Z,43.43
2018-12-06T08:56:29.309Z,40.57
2018-12-06T08:59:00.388Z,30.30
2018-12-06T09:16:11.031Z,33.03
2018-12-06T09:18:41.067Z,31.93
2018-12-06T09:21:18.710Z,36.77
2018-12-06T09:26:42.683Z,38.43
2018-12-06T09:34:58.058Z,42.37
2018-12-06T09:37:31.373Z,41.07
2018-12-06T09:40:00.220Z,43.47
2018-12-06T09:42:34.703Z,43.38
2018-12-06T09:45:08.984Z,49.20
2018-12-06T09:47:40.059Z,49.80
2018-12-06T09:50:17.634Z,42.30
2018-12-06T09:52:51.058Z,41.00
2018-12-06T09:58:19.514Z,40.90
2018-12-06T10:00:50.203Z,46.83
2018-12-06T10:03:20.947Z,40.73
2018-12-06T10:05:51.527Z,40.80
2018-12-06T10:08:22.086Z,45.97
2018-12-06T10:10:52.774Z,40.77
2018-12-06T10:13:23.277Z,48.33
2018-12-06T10:15:56.608Z,45.40
2018-12-06T10:18:25.307Z,39.13
2018-12-06T10:23:52.290Z,48.47
2018-12-06T10:26:25.770Z,95.67
2018-12-06T10:34:43.366Z,52.40
2018-12-06T10:44:48.903Z,45.87
2018-12-06T10:47:22.246Z,31.73
2018-12-06T10:49:53.083Z,40.87
2018-12-06T10:52:26.191Z,36.37
2018-12-06T10:57:50.423Z,37.43
2018-12-06T11:00:26.980Z,35.80
2018-12-06T11:03:06.288Z,35.13
2018-12-06T11:05:40.153Z,29.47
2018-12-06T11:08:17.547Z,36.47
2018-12-06T11:10:48.799Z,35.17
2018-12-06T11:16:18.461Z,30.73
2018-12-06T11:18:49.740Z,33.03
2018-12-06T11:21:18.722Z,36.23
2018-12-06T11:23:49.411Z,31.47
2018-12-06T11:26:20.199Z,27.30
2018-12-06T11:28:51.414Z,29.47
2018-12-06T11:31:24.624Z,27.67
2018-12-06T11:34:00.274Z,28.77
2018-12-06T11:36:31.585Z,25.90
2018-12-06T11:39:06.225Z,26.40
2018-12-06T11:41:43.052Z,27.47
2018-12-06T11:44:12.930Z,31.00
2018-12-06T11:54:19.122Z,30.10
2018-12-06T11:59:46.488Z,24.73
2018-12-06T12:02:19.868Z,21.30
2018-12-06T12:04:53.703Z,28.60
2018-12-06T12:07:28.169Z,22.10
2018-12-06T12:10:05.528Z,27.77
2018-12-06T12:12:36.616Z,24.43
2018-12-06T12:15:06.191Z,23.90
2018-12-06T12:17:36.699Z,24.80
2018-12-06T12:20:14.027Z,21.80
2018-12-06T12:22:44.527Z,24.10
2018-12-06T12:25:19.756Z,18.93
2018-12-06T12:27:48.472Z,21.77
2018-12-06T12:30:19.047Z,24.20
2018-12-06T12:32:47.735Z,18.63
2018-12-06T12:35:21.136Z,22.17
2018-12-06T12:38:08.524Z,21.37
2018-12-06T12:40:44.432Z,20.70
2018-12-06T12:43:22.093Z,24.53
2018-12-06T12:48:51.973Z,17.20
2018-12-06T12:51:25.115Z,16.90
2018-12-06T13:00:01.379Z,21.70
2018-12-06T13:02:30.050Z,16.57
2018-12-06T13:05:01.387Z,17.42
2018-12-06T13:07:32.094Z,14.80
2018-12-06T13:10:07.729Z,20.70
2018-12-06T13:12:41.433Z,15.97
2018-12-06T13:15:14.892Z,11.67
2018-12-06T13:17:48.447Z,14.67
2018-12-06T13:20:22.270Z,11.70
2018-12-06T13:22:53.335Z,14.03
2018-12-06T13:25:31.192Z,12.53
2018-12-06T13:28:15.474Z,12.83
2018-12-06T13:30:50.726Z,14.37
2018-12-06T13:33:21.391Z,14.70
2018-12-06T13:35:50.434Z,11.40
2018-12-06T13:38:27.727Z,12.80
2018-12-06T13:41:01.418Z,13.77
2018-12-06T13:43:30.603Z,11.57
2018-12-06T13:46:08.806Z,11.90
2018-12-06T13:48:43.140Z,10.87
2018-12-06T13:51:11.991Z,12.40
2018-12-06T13:53:45.526Z,12.00
2018-12-06T13:56:29.361Z,8.53
2018-12-06T13:58:59.387Z,8.97
2018-12-06T14:01:30.203Z,11.60
2018-12-06T14:03:57.710Z,10.03
2018-12-06T14:06:41.091Z,9.70
2018-12-06T14:09:16.143Z,12.03
2018-12-06T14:11:53.590Z,8.77
2018-12-06T14:14:27.391Z,7.30
2018-12-06T14:17:15.898Z,7.50
2018-12-06T14:19:49.625Z,11.80
2018-12-06T14:22:30.759Z,9.07
2018-12-06T14:25:04.232Z,8.03
2018-12-06T14:27:44.901Z,7.50
2018-12-06T14:30:18.723Z,9.83
2018-12-06T14:35:51.152Z,7.60
2018-12-06T14:38:31.805Z,9.70
2018-12-06T14:41:02.869Z,7.43
2018-12-06T14:43:34.367Z,8.40
2018-12-06T14:46:13.733Z,10.17
2018-12-06T14:48:51.260Z,10.60
2018-12-06T14:51:22.244Z,11.30
2018-12-06T14:53:49.716Z,10.13
2018-12-06T14:56:23.576Z,10.30
2018-12-06T14:58:57.861Z,7.70
2018-12-06T15:01:31.431Z,12.60
2018-12-06T15:04:13.748Z,10.60
2018-12-06T15:06:47.112Z,11.07
2018-12-06T15:09:21.526Z,9.27
2018-12-06T15:11:56.158Z,10.63
2018-12-06T15:14:32.706Z,9.30
2018-12-06T15:17:06.876Z,8.83
2018-12-06T15:22:16.559Z,10.23
2018-12-06T15:37:21.118Z,12.17
2018-12-06T15:39:54.627Z,14.43
2018-12-06T15:42:25.160Z,11.77
2018-12-06T15:44:58.775Z,11.80
2018-12-06T15:47:33.818Z,13.73
2018-12-06T15:50:10.908Z,12.30
2018-12-06T15:52:48.976Z,14.07
2018-12-06T15:55:20.600Z,14.93
2018-12-06T15:57:59.250Z,18.60
2018-12-06T16:00:40.406Z,18.03
2018-12-06T16:03:15.130Z,17.40
2018-12-06T16:05:59.508Z,19.00
2018-12-06T16:11:21.455Z,14.37
2018-12-06T16:13:52.289Z,11.53
2018-12-06T16:16:22.674Z,16.10
2018-12-06T16:18:53.239Z,13.53
2018-12-06T16:21:33.332Z,12.87
2018-12-06T16:24:03.030Z,15.93
2018-12-06T16:26:34.197Z,14.13
2018-12-06T16:29:08.963Z,14.93
2018-12-06T16:31:43.843Z,14.27
2018-12-06T16:34:21.573Z,11.67
2018-12-06T16:36:52.606Z,14.27
2018-12-06T16:39:27.749Z,15.67
2018-12-06T16:42:08.153Z,15.73
2018-12-06T16:44:45.731Z,13.73
2018-12-06T16:47:16.237Z,13.17
2018-12-06T16:49:43.779Z,13.30
2018-12-06T16:52:21.070Z,14.75
2018-12-06T16:54:54.470Z,11.20
2018-12-06T16:57:27.690Z,10.30
2018-12-06T17:02:52.599Z,9.93
2018-12-06T17:05:26.721Z,11.37
2018-12-06T17:07:57.363Z,9.67
2018-12-06T17:10:28.073Z,12.37
2018-12-06T17:13:01.340Z,10.97
2018-12-06T17:15:35.608Z,11.23
2018-12-06T17:18:11.827Z,9.40
2018-12-06T17:20:40.444Z,9.57
2018-12-06T17:23:16.332Z,9.88
2018-12-06T17:25:56.721Z,11.43
2018-12-06T17:28:32.290Z,13.97
2018-12-06T17:31:06.329Z,9.97
2018-12-06T17:33:50.549Z,9.30
2018-12-06T17:36:28.381Z,9.87
2018-12-06T17:42:02.101Z,9.00
2018-12-06T17:44:35.714Z,9.20
2018-12-06T17:47:09.955Z,9.40
2018-12-06T17:49:37.445Z,9.63
2018-12-06T17:52:14.161Z,9.20
2018-12-06T17:54:44.793Z,9.10
2018-12-06T17:57:16.097Z,10.07
2018-12-06T18:00:02.922Z,9.97
2018-12-06T18:02:34.946Z,8.23
2018-12-06T18:05:12.011Z,9.00
2018-12-06T18:07:43.840Z,8.90
2018-12-06T18:10:21.273Z,10.80
2018-12-06T18:13:03.424Z,10.43
2018-12-06T18:15:39.743Z,12.20
2018-12-06T18:18:15.136Z,11.13
2018-12-06T18:20:44.727Z,10.00
2018-12-06T18:23:19.658Z,10.83
2018-12-06T18:25:53.378Z,10.63
2018-12-06T18:28:26.631Z,10.83
2018-12-06T18:30:55.865Z,11.67
2018-12-06T18:33:26.968Z,12.63
2018-12-06T18:36:09.165Z,12.30
2018-12-06T18:38:42.370Z,11.73
2018-12-06T18:41:29.169Z,9.17
2018-12-06T18:44:03.031Z,10.10
2018-12-06T18:46:33.049Z,11.00
2018-12-06T18:49:03.843Z,10.23
2018-12-06T18:51:43.869Z,8.47
2018-12-06T18:54:19.806Z,9.80
2018-12-06T18:56:48.514Z,9.63
2018-12-06T18:59:19.304Z,7.15
2018-12-06T19:01:48.757Z,8.43
2018-12-06T19:04:30.313Z,10.83
2018-12-06T19:07:00.931Z,11.87
2018-12-06T19:09:34.377Z,8.83
2018-12-06T19:12:06.398Z,8.70
2018-12-06T19:14:37.675Z,8.13
2018-12-06T19:17:13.503Z,7.47
2018-12-06T19:19:48.173Z,6.97
2018-12-06T19:22:25.500Z,7.13
2018-12-06T19:25:01.403Z,8.93
2018-12-06T19:27:35.488Z,9.73
2018-12-06T19:30:09.062Z,9.13
2018-12-06T19:32:49.304Z,10.63
2018-12-06T19:35:23.239Z,9.57
2018-12-06T19:37:53.929Z,11.17
2018-12-06T19:40:27.543Z,10.17
2018-12-06T19:42:57.615Z,9.00
2018-12-06T19:45:31.470Z,11.57
2018-12-06T19:48:02.373Z,11.53
2018-12-06T19:50:32.888Z,10.63
2018-12-06T19:53:14.070Z,10.93
2018-12-06T19:55:49.027Z,13.77
2018-12-06T19:58:20.470Z,12.00
2018-12-06T20:00:51.397Z,11.17
2018-12-06T20:03:22.689Z,11.10
2018-12-06T20:05:53.511Z,10.00
2018-12-06T20:08:24.864Z,11.07
2018-12-06T20:11:02.146Z,11.50
2018-12-06T20:13:35.932Z,10.23
2018-12-06T20:16:09.489Z,11.03
2018-12-06T20:18:45.158Z,14.87
2018-12-06T20:24:25.060Z,9.37
2018-12-06T20:26:56.372Z,8.30
2018-12-06T20:29:25.348Z,10.70
2018-12-06T20:31:54.460Z,6.83
2018-12-06T20:40:12.830Z,5.93
2018-12-06T20:42:43.592Z,5.77
2018-12-06T20:45:28.072Z,7.03
2018-12-06T20:47:59.114Z,7.37
2018-12-06T20:50:30.302Z,4.70
2018-12-06T20:53:16.167Z,5.40
2018-12-06T20:55:54.217Z,4.33
2018-12-06T20:58:26.113Z,4.03
2018-12-06T21:01:06.067Z,4.43
2018-12-06T21:03:44.624Z,4.57
2018-12-06T21:09:09.014Z,4.70
2018-12-06T21:14:34.983Z,4.33
2018-12-06T21:17:09.393Z,4.33
2018-12-06T21:19:38.291Z,4.60
2018-12-06T21:22:11.712Z,4.27
2018-12-06T21:24:43.521Z,7.47
2018-12-06T21:27:14.159Z,6.00
2018-12-06T21:29:49.317Z,6.50
2018-12-06T21:32:23.841Z,5.70
2018-12-06T21:34:54.996Z,6.90
2018-12-06T21:37:25.756Z,5.43
2018-12-06T21:39:59.136Z,5.27
2018-12-06T21:42:32.634Z,7.33
2018-12-06T21:45:06.224Z,7.00
2018-12-06T21:47:39.709Z,5.40
2018-12-06T21:50:19.872Z,5.93
2018-12-06T21:53:06.730Z,7.10
2018-12-06T21:58:45.360Z,6.07
2018-12-06T22:01:16.725Z,7.83
2018-12-06T22:03:50.119Z,8.33
2018-12-06T22:06:19.028Z,8.80
2018-12-06T22:08:52.270Z,6.83
2018-12-06T22:14:23.802Z,5.70
2018-12-06T22:19:59.089Z,6.03
2018-12-06T22:22:30.067Z,4.27
2018-12-06T22:33:38.011Z,5.30
2018-12-06T22:39:00.067Z,5.07
2018-12-06T22:44:21.324Z,7.07
2018-12-06T22:46:55.105Z,3.75
2018-12-06T22:55:37.721Z,5.17
2018-12-06T22:58:11.225Z,4.57
2018-12-06T23:15:14.007Z,4.10
2018-12-06T23:26:24.857Z,3.07
2018-12-06T23:37:46.755Z,3.30
2018-12-06T23:46:14.505Z,3.67
2018-12-06T23:48:46.951Z,2.57
2018-12-06T23:51:31.437Z,2.80
2018-12-06T23:54:08.779Z,7.60
2018-12-06T23:56:41.928Z,2.70
2018-12-06T23:59:25.878Z,2.07
